Time;durP1;ratioP1;P1;durP2;ratioP2;P2;SDS_P1;SDS_P2;PMS_P1;PMS_P2;Temp;Humidity;BMP_temperature;BMP_pressure;BME280_temperature;BME280_humidity;BME280_pressure;Samples;Min_cycle;Max_cycle;Signal;HPM_P1;HPM_P2
2021/06/28 00:01:23;;;;;;;12.48;10.15;;;18.70;90.30;;;;;;4943785;29;20028;-82
2021/06/28 00:03:49;;;;;;;11.43;10.30;;;18.80;90.20;;;;;;4943982;29;20082;-83
2021/06/28 00:06:15;;;;;;;11.35;9.75;;;18.80;90.10;;;;;;4945631;29;20490;-83
2021/06/28 00:08:42;;;;;;;11.50;9.70;;;18.80;90.00;;;;;;4945428;29;20036;-82
2021/06/28 00:11:09;;;;;;;11.32;9.98;;;18.80;89.80;;;;;;4942571;29;20548;-82
2021/06/28 00:13:37;;;;;;;11.05;9.90;;;18.80;89.70;;;;;;4942073;29;20502;-81
2021/06/28 00:16:03;;;;;;;10.70;9.60;;;18.90;89.70;;;;;;4959303;28;20043;-82
2021/06/28 00:18:28;;;;;;;10.52;9.52;;;18.80;89.60;;;;;;4957533;29;20479;-83
2021/06/28 00:20:54;;;;;;;11.57;9.98;;;18.80;89.60;;;;;;4941984;29;20542;-82
2021/06/28 00:23:20;;;;;;;10.73;9.70;;;18.80;89.60;;;;;;4958341;29;20035;-82
2021/06/28 00:25:46;;;;;;;10.73;9.73;;;18.80;89.50;;;;;;4958163;29;20038;-81
2021/06/28 00:28:12;;;;;;;11.38;9.75;;;18.80;89.40;;;;;;4959030;28;20110;-82
2021/06/28 00:30:41;;;;;;;11.25;10.15;;;18.70;89.40;;;;;;4958090;29;20031;-82
2021/06/28 00:33:18;;;;;;;11.02;9.90;;;18.60;89.60;;;;;;4958463;29;20487;-84
2021/06/28 00:35:46;;;;;;;11.13;10.05;;;18.50;89.90;;;;;;4960703;28;20031;-82
2021/06/28 00:38:12;;;;;;;10.55;9.55;;;18.50;90.00;;;;;;4958408;29;20130;-82
2021/06/28 00:40:39;;;;;;;11.65;10.35;;;18.50;90.10;;;;;;4958426;29;20038;-82
2021/06/28 00:43:06;;;;;;;12.15;10.88;;;18.30;90.20;;;;;;4958361;29;20046;-82
2021/06/28 00:45:35;;;;;;;11.23;10.05;;;18.30;90.30;;;;;;4958132;29;20093;-82
2021/06/28 00:48:04;;;;;;;12.05;10.85;;;18.20;90.50;;;;;;4960023;28;20081;-82
2021/06/28 00:50:32;;;;;;;12.68;11.38;;;18.10;90.60;;;;;;4961837;28;20015;-82
2021/06/28 00:53:00;;;;;;;12.32;11.02;;;18.10;90.70;;;;;;4960981;28;20022;-82
2021/06/28 00:55:27;;;;;;;12.98;11.68;;;18.10;90.70;;;;;;4977448;28;20501;-82
2021/06/28 00:57:53;;;;;;;12.45;11.25;;;18.00;90.80;;;;;;4961947;28;20093;-83
2021/06/28 01:00:19;;;;;;;13.05;11.75;;;18.00;90.90;;;;;;4947772;28;20433;-82
2021/06/28 01:02:46;;;;;;;13.05;11.73;;;18.00;90.90;;;;;;4965611;28;20026;-82
2021/06/28 01:05:16;;;;;;;13.50;12.10;;;17.90;91.00;;;;;;4962598;28;20082;-85
2021/06/28 01:07:42;;;;;;;15.20;11.45;;;17.90;91.10;;;;;;4980711;28;20023;-83
2021/06/28 01:10:09;;;;;;;13.18;11.70;;;17.80;91.10;;;;;;4982061;28;20007;-82
2021/06/28 01:12:35;;;;;;;13.32;11.57;;;17.80;91.20;;;;;;4982293;28;20048;-83
2021/06/28 01:15:04;;;;;;;14.48;12.98;;;17.70;91.20;;;;;;4987541;28;20090;-83
2021/06/28 01:17:30;;;;;;;13.80;12.40;;;17.70;91.40;;;;;;4951587;28;20034;-82
2021/06/28 01:20:11;;;;;;;15.90;12.48;;;17.70;91.40;;;;;;4967091;28;20093;-82
2021/06/28 01:22:40;;;;;;;14.63;12.35;;;17.60;91.50;;;;;;4961501;28;20027;-81
2021/06/28 01:25:09;;;;;;;13.68;12.30;;;17.60;91.60;;;;;;4946687;28;20041;-82
2021/06/28 01:27:35;;;;;;;13.35;11.88;;;17.70;91.60;;;;;;4960435;28;20054;-82
2021/06/28 01:30:02;;;;;;;13.57;11.95;;;17.80;91.50;;;;;;4944224;28;20370;-81
2021/06/28 01:32:27;;;;;;;15.90;11.07;;;17.90;91.60;;;;;;4959083;28;20463;-81
2021/06/28 01:34:53;;;;;;;12.40;11.20;;;17.90;91.30;;;;;;4960030;28;20041;-82
2021/06/28 01:37:19;;;;;;;12.02;10.82;;;18.00;91.20;;;;;;4943657;28;20023;-83
2021/06/28 01:39:45;;;;;;;12.60;10.98;;;17.90;91.10;;;;;;4976866;28;20089;-82
2021/06/28 01:42:11;;;;;;;11.68;10.48;;;18.00;91.20;;;;;;4943313;28;20046;-82
2021/06/28 01:44:37;;;;;;;11.85;10.73;;;18.10;91.10;;;;;;4959174;28;20114;-82
2021/06/28 01:47:03;;;;;;;13.02;11.00;;;18.10;91.00;;;;;;4946627;28;20033;-82
2021/06/28 01:49:29;;;;;;;11.43;10.23;;;18.00;91.00;;;;;;4979773;28;20485;-82
2021/06/28 01:51:55;;;;;;;11.75;10.65;;;18.00;91.10;;;;;;4943342;28;20061;-82
2021/06/28 01:54:21;;;;;;;13.13;11.80;;;17.90;91.10;;;;;;4944230;28;20166;-83
2021/06/28 01:56:46;;;;;;;12.43;11.30;;;17.80;91.10;;;;;;4960019;28;20082;-82
2021/06/28 01:59:12;;;;;;;11.88;10.60;;;17.90;91.20;;;;;;4959191;28;20039;-83
2021/06/28 02:01:38;;;;;;;11.15;10.15;;;18.00;91.10;;;;;;4959324;28;20031;-82
2021/06/28 02:04:04;;;;;;;13.52;11.13;;;18.10;91.00;;;;;;4943015;28;20042;-82
2021/06/28 02:06:30;;;;;;;12.20;10.80;;;18.10;90.90;;;;;;4942749;28;20510;-82
2021/06/28 02:08:56;;;;;;;11.35;10.25;;;18.20;90.90;;;;;;4976466;28;20027;-82
2021/06/28 02:11:21;;;;;;;11.13;10.05;;;18.20;90.80;;;;;;4958367;28;20114;-82
2021/06/28 02:13:47;;;;;;;11.00;10.00;;;18.20;90.80;;;;;;4942965;28;20089;-83
2021/06/28 02:16:13;;;;;;;10.10;9.07;;;18.20;90.70;;;;;;4958683;28;20465;-83
2021/06/28 02:18:38;;;;;;;10.68;9.65;;;18.10;90.70;;;;;;4942508;28;20521;-82
2021/06/28 02:21:04;;;;;;;10.75;9.65;;;18.20;90.70;;;;;;4958578;28;20031;-83
2021/06/28 02:23:35;;;;;;;10.52;9.52;;;18.20;90.60;;;;;;4942671;28;20117;-83
2021/06/28 02:26:08;;;;;;;10.68;9.68;;;18.20;90.50;;;;;;4958475;28;20034;-83
2021/06/28 02:28:36;;;;;;;;;;;18.20;90.50;;;;;;4959253;28;20153;-83
2021/06/28 02:31:04;;;;;;;10.60;9.43;;;18.20;90.50;;;;;;4958474;28;19910;-83
2021/06/28 02:33:31;;;;;;;10.27;9.27;;;18.20;90.40;;;;;;4958729;28;20349;-82
2021/06/28 02:35:57;;;;;;;10.73;9.60;;;18.20;90.40;;;;;;4958111;28;20093;-82
2021/06/28 02:38:23;;;;;;;12.85;9.82;;;18.20;90.40;;;;;;4958040;28;20039;-82
2021/06/28 02:40:49;;;;;;;11.73;9.48;;;18.20;90.40;;;;;;4958064;28;20030;-82
2021/06/28 02:43:15;;;;;;;10.15;9.18;;;18.20;90.40;;;;;;4958012;28;20039;-83
2021/06/28 02:45:41;;;;;;;11.00;9.07;;;18.20;90.30;;;;;;4958047;28;20451;-83
2021/06/28 02:48:07;;;;;;;10.18;9.18;;;18.20;90.20;;;;;;4957592;28;20090;-83
2021/06/28 02:50:33;;;;;;;10.30;9.30;;;18.20;90.10;;;;;;4958386;28;20026;-83
2021/06/28 02:52:59;;;;;;;9.93;8.85;;;18.20;90.10;;;;;;4958525;28;20085;-83
2021/06/28 02:55:25;;;;;;;11.27;9.35;;;18.10;90.10;;;;;;4958405;28;20639;-83
2021/06/28 02:57:50;;;;;;;11.40;8.50;;;18.10;90.10;;;;;;4942520;28;20344;-83
2021/06/28 03:00:17;;;;;;;9.43;8.52;;;18.10;90.10;;;;;;4941652;28;20038;-83
2021/06/28 03:02:43;;;;;;;11.48;10.30;;;18.10;90.00;;;;;;4976190;28;20027;-83
2021/06/28 03:05:11;;;;;;;9.90;9.00;;;18.10;90.10;;;;;;4957708;28;20030;-82
2021/06/28 03:07:37;;;;;;;10.57;9.57;;;18.00;90.10;;;;;;4974785;28;20027;-83
2021/06/28 03:10:08;;;;;;;11.25;10.02;;;18.00;90.20;;;;;;4957863;28;20459;-82
2021/06/28 03:12:34;;;;;;;11.48;10.27;;;17.90;90.30;;;;;;4941960;28;20034;-83
2021/06/28 03:15:00;;;;;;;12.75;10.52;;;18.00;90.30;;;;;;4957189;28;20031;-83
2021/06/28 03:17:25;;;;;;;12.00;10.63;;;18.00;90.40;;;;;;4975203;28;20093;-83
2021/06/28 03:19:51;;;;;;;12.25;11.05;;;18.00;90.40;;;;;;4957528;28;20041;-84
2021/06/28 03:22:17;;;;;;;11.20;10.05;;;17.90;90.40;;;;;;4957410;28;20030;-83
2021/06/28 03:24:44;;;;;;;10.77;9.77;;;17.80;90.40;;;;;;4941776;28;20071;-83
2021/06/28 03:27:09;;;;;;;10.52;9.52;;;17.80;90.40;;;;;;4942083;28;20033;-83
2021/06/28 03:29:36;;;;;;;11.93;9.82;;;17.80;90.30;;;;;;4957932;28;20121;-84
2021/06/28 03:32:02;;;;;;;11.85;10.55;;;17.90;90.30;;;;;;4957593;28;20031;-83
2021/06/28 03:34:27;;;;;;;11.45;10.40;;;17.80;90.20;;;;;;4957926;28;20033;-83
2021/06/28 03:36:53;;;;;;;13.43;12.13;;;17.80;90.30;;;;;;4941370;28;20027;-83
2021/06/28 03:39:18;;;;;;;12.63;11.32;;;17.80;90.40;;;;;;4957445;28;20035;-83
2021/06/28 03:41:44;;;;;;;14.40;12.73;;;17.70;90.40;;;;;;4944447;28;20070;-83
2021/06/28 03:44:10;;;;;;;14.25;12.55;;;17.60;90.60;;;;;;4960853;28;20447;-83
2021/06/28 03:46:35;;;;;;;12.63;11.25;;;17.50;90.60;;;;;;4976383;28;20035;-83
2021/06/28 03:49:01;;;;;;;14.63;11.38;;;17.50;90.70;;;;;;4940993;28;20062;-83
2021/06/28 03:51:27;;;;;;;11.82;10.57;;;17.60;90.70;;;;;;4957605;28;20030;-83
2021/06/28 03:53:52;;;;;;;12.38;11.07;;;17.80;90.60;;;;;;4941533;28;20421;-82
2021/06/28 03:56:18;;;;;;;11.75;10.60;;;17.90;90.40;;;;;;4957919;28;20050;-82
2021/06/28 03:58:45;;;;;;;16.67;12.18;;;18.00;90.20;;;;;;4941556;28;20412;-82
2021/06/28 04:01:11;;;;;;;12.50;11.30;;;18.10;90.10;;;;;;4957903;28;20026;-82
2021/06/28 04:03:38;;;;;;;14.05;11.85;;;18.30;90.00;;;;;;4941303;28;20038;-82
2021/06/28 04:06:06;;;;;;;12.85;11.50;;;18.30;89.70;;;;;;4957952;28;20026;-83
2021/06/28 04:08:32;;;;;;;12.38;11.15;;;18.40;89.50;;;;;;4941972;28;20038;-83
2021/06/28 04:10:59;;;;;;;13.80;11.43;;;18.50;89.30;;;;;;4941366;28;20027;-83
2021/06/28 04:13:24;;;;;;;11.88;10.68;;;18.60;88.90;;;;;;4941242;28;20125;-82
2021/06/28 04:15:51;;;;;;;14.60;12.07;;;18.60;88.70;;;;;;4961364;28;20058;-83
2021/06/28 04:18:17;;;;;;;14.07;12.73;;;18.80;88.40;;;;;;4957829;28;20054;-82
2021/06/28 04:20:42;;;;;;;15.43;12.95;;;18.90;87.80;;;;;;4941503;28;20066;-83
2021/06/28 04:23:08;;;;;;;15.00;13.05;;;19.10;87.50;;;;;;4942344;28;20056;-82
2021/06/28 04:25:34;;;;;;;15.38;12.70;;;19.40;86.80;;;;;;4957013;28;20030;-83
2021/06/28 04:28:00;;;;;;;14.15;12.65;;;20.10;85.60;;;;;;4957556;28;20065;-82
2021/06/28 04:30:26;;;;;;;13.38;11.98;;;20.10;84.10;;;;;;4974271;28;20116;-81
2021/06/28 04:32:53;;;;;;;16.77;13.55;;;19.90;84.30;;;;;;4959787;28;20114;-82
2021/06/28 04:35:21;;;;;;;22.95;14.93;;;19.80;84.30;;;;;;4942662;28;20120;-83
2021/06/28 04:37:48;;;;;;;19.35;14.45;;;19.40;85.50;;;;;;4960619;28;20033;-83
2021/06/28 04:40:17;;;;;;;16.60;14.52;;;19.10;86.30;;;;;;4964938;28;20038;-82
2021/06/28 04:42:43;;;;;;;13.90;12.55;;;19.30;87.10;;;;;;4977888;28;20015;-83
2021/06/28 04:45:11;;;;;;;12.43;11.23;;;20.30;84.90;;;;;;5001045;28;20027;-82
2021/06/28 04:47:37;;;;;;;14.60;11.95;;;20.40;83.70;;;;;;5001646;28;20026;-83
2021/06/28 04:50:04;;;;;;;12.45;11.15;;;21.10;82.10;;;;;;4963946;28;20046;-83
2021/06/28 04:52:31;;;;;;;12.43;11.20;;;21.30;80.60;;;;;;4957178;28;20038;-82
2021/06/28 04:54:57;;;;;;;11.40;10.27;;;21.40;80.10;;;;;;4977245;28;20073;-82
2021/06/28 04:57:23;;;;;;;16.05;11.82;;;21.70;79.70;;;;;;4977384;28;20109;-83
2021/06/28 04:59:48;;;;;;;13.07;10.77;;;22.30;78.10;;;;;;4962742;28;20093;-83
2021/06/28 05:02:15;;;;;;;13.07;11.88;;;22.30;77.30;;;;;;4945431;28;20022;-82
2021/06/28 05:04:41;;;;;;;12.05;10.95;;;22.10;77.70;;;;;;4946057;28;20443;-82
2021/06/28 05:07:07;;;;;;;11.32;10.32;;;22.80;76.80;;;;;;4944006;28;20042;-82
2021/06/28 05:09:33;;;;;;;15.68;12.23;;;23.80;74.20;;;;;;4943952;28;20038;-82
2021/06/28 05:11:58;;;;;;;13.32;11.93;;;24.50;71.40;;;;;;4943973;28;20117;-82
2021/06/28 05:14:26;;;;;;;11.35;10.18;;;25.10;69.90;;;;;;4947927;28;20117;-83
2021/06/28 05:16:52;;;;;;;10.38;9.30;;;25.60;68.60;;;;;;4965932;28;20062;-81
2021/06/28 05:19:17;;;;;;;10.13;9.13;;;26.10;67.30;;;;;;4964798;28;20486;-82
2021/06/28 05:21:43;;;;;;;10.48;9.27;;;26.80;65.70;;;;;;4949350;28;20034;-80
2021/06/28 05:24:09;;;;;;;11.93;9.98;;;27.20;64.30;;;;;;4961787;28;20078;-82
2021/06/28 05:26:35;;;;;;;10.90;9.80;;;27.20;63.30;;;;;;4960915;28;20026;-83
2021/06/28 05:29:01;;;;;;;10.73;9.73;;;26.90;63.90;;;;;;4948244;28;20037;-82
2021/06/28 05:31:27;;;;;;;9.63;8.73;;;27.10;63.90;;;;;;4944840;28;20487;-82
2021/06/28 05:33:53;;;;;;;9.45;8.55;;;27.60;63.20;;;;;;4959672;28;20027;-83
2021/06/28 05:36:20;;;;;;;9.45;8.65;;;28.50;61.80;;;;;;4945535;28;20034;-84
2021/06/28 05:38:46;;;;;;;11.90;10.15;;;29.20;60.20;;;;;;4961069;28;20043;-84
2021/06/28 05:41:11;;;;;;;10.32;9.30;;;29.70;58.70;;;;;;4945271;28;20075;-84
2021/06/28 05:43:37;;;;;;;11.63;10.55;;;30.00;57.60;;;;;;4944368;28;20145;-83
2021/06/28 05:46:11;;;;;;;11.20;9.73;;;29.50;58.10;;;;;;4962603;28;20198;-82
2021/06/28 05:48:37;;;;;;;11.30;10.23;;;29.10;59.00;;;;;;4952101;28;20061;-83
2021/06/28 05:51:03;;;;;;;11.60;10.20;;;28.70;59.40;;;;;;4953585;28;20054;-82
2021/06/28 05:53:29;;;;;;;10.85;9.77;;;28.40;59.30;;;;;;4966956;28;20027;-83
2021/06/28 05:55:58;;;;;;;12.57;10.77;;;28.40;59.60;;;;;;4964621;28;20105;-85
2021/06/28 05:58:25;;;;;;;11.63;10.45;;;28.60;59.20;;;;;;4963141;28;20038;-84
2021/06/28 06:00:52;;;;;;;10.25;9.32;;;28.50;59.30;;;;;;4959851;28;20038;-84
2021/06/28 06:03:18;;;;;;;10.82;9.82;;;29.10;60.10;;;;;;4959085;28;20029;-85
2021/06/28 06:05:43;;;;;;;9.40;8.48;;;29.50;58.00;;;;;;4959313;28;20060;-84
2021/06/28 06:08:10;;;;;;;10.27;9.38;;;30.10;57.80;;;;;;4959502;28;20074;-86
2021/06/28 06:10:35;;;;;;;10.82;9.82;;;29.70;57.30;;;;;;4944567;28;20043;-85
2021/06/28 06:13:01;;;;;;;11.55;10.48;;;28.80;59.90;;;;;;4943389;28;20368;-87
2021/06/28 06:15:27;;;;;;;14.43;13.07;;;28.20;60.10;;;;;;4943004;28;20027;-86
2021/06/28 06:17:53;;;;;;;12.05;10.77;;;27.30;62.10;;;;;;4976432;28;20026;-85
2021/06/28 06:20:19;;;;;;;13.50;12.25;;;27.70;61.90;;;;;;4942519;28;20134;-86
2021/06/28 06:22:45;;;;;;;15.68;14.00;;;28.10;61.30;;;;;;4958481;28;20085;-86
2021/06/28 06:25:11;;;;;;;15.18;13.60;;;28.80;60.30;;;;;;4959238;28;20393;-87
2021/06/28 06:27:37;;;;;;;15.70;14.10;;;29.20;59.80;;;;;;4942881;28;20026;-86
2021/06/28 06:30:05;;;;;;;13.75;12.45;;;29.50;58.10;;;;;;4958640;28;20125;-85
2021/06/28 06:32:31;;;;;;;13.45;11.90;;;29.40;57.40;;;;;;4976585;28;20059;-85
2021/06/28 06:34:56;;;;;;;12.45;11.35;;;29.80;57.40;;;;;;4959206;28;20051;-87
2021/06/28 06:37:22;;;;;;;14.07;12.65;;;30.30;56.40;;;;;;4959538;28;20031;-87
2021/06/28 06:39:49;;;;;;;14.68;13.07;;;30.60;55.60;;;;;;4976384;28;20041;-89
2021/06/28 06:42:15;;;;;;;16.02;14.48;;;31.00;54.20;;;;;;4959987;28;20114;-89
2021/06/28 06:44:41;;;;;;;16.08;13.20;;;31.60;53.60;;;;;;4943184;28;20065;-89
2021/06/28 06:47:07;;;;;;;14.02;12.63;;;31.70;52.80;;;;;;4976848;28;20070;-88
2021/06/28 06:49:32;;;;;;;14.05;12.82;;;31.40;53.10;;;;;;4960236;28;20050;-88
2021/06/28 06:51:58;;;;;;;15.43;14.00;;;31.40;53.60;;;;;;4944616;28;20122;-86
2021/06/28 06:54:24;;;;;;;13.30;12.10;;;30.90;54.40;;;;;;4944341;28;20114;-89
2021/06/28 06:56:49;;;;;;;11.70;10.60;;;30.90;54.50;;;;;;4958456;28;20035;-88
2021/06/28 06:59:15;;;;;;;11.32;10.18;;;30.90;54.40;;;;;;4942607;28;20137;-86
2021/06/28 07:01:42;;;;;;;12.23;11.13;;;31.30;53.90;;;;;;4942502;28;20038;-87
2021/06/28 07:04:08;;;;;;;12.00;10.95;;;31.50;54.10;;;;;;4959537;28;20531;-87
2021/06/28 07:06:34;;;;;;;13.15;11.98;;;31.90;54.90;;;;;;4942035;28;20138;-86
2021/06/28 07:08:59;;;;;;;14.30;12.90;;;31.80;53.20;;;;;;4975655;28;20046;-86
2021/06/28 07:11:25;;;;;;;14.40;13.10;;;31.00;55.30;;;;;;4958751;28;20431;-85
2021/06/28 07:13:52;;;;;;;16.77;15.18;;;30.60;56.20;;;;;;4975526;28;20035;-86
2021/06/28 07:16:20;;;;;;;15.70;14.00;;;30.20;57.80;;;;;;4942242;28;20035;-83
2021/06/28 07:18:46;;;;;;;15.65;13.88;;;30.00;59.90;;;;;;4958647;28;20467;-85
2021/06/28 07:21:12;;;;;;;13.55;12.35;;;29.70;58.70;;;;;;4958253;28;20031;-86
2021/06/28 07:23:39;;;;;;;14.68;13.38;;;29.40;60.00;;;;;;4958397;28;20019;-83
2021/06/28 07:26:06;;;;;;;14.18;12.93;;;29.10;61.00;;;;;;4960025;28;20030;-87
2021/06/28 07:28:33;;;;;;;14.68;13.00;;;29.00;61.90;;;;;;4988548;28;20113;-85
2021/06/28 07:30:59;;;;;;;14.20;12.80;;;28.90;61.70;;;;;;4958562;28;20070;-85
2021/06/28 07:33:29;;;;;;;14.73;13.43;;;28.70;61.90;;;;;;4974828;28;20102;-85
2021/06/28 07:35:55;;;;;;;15.13;13.73;;;28.60;62.50;;;;;;4961182;28;20027;-87
2021/06/28 07:38:25;;;;;;;14.13;12.88;;;29.00;61.50;;;;;;4955828;28;20023;-85
2021/06/28 07:40:50;;;;;;;16.83;15.23;;;29.60;60.80;;;;;;4974641;28;20371;-84
2021/06/28 07:43:17;;;;;;;14.70;13.30;;;30.30;59.70;;;;;;4957809;28;20038;-85
2021/06/28 07:45:43;;;;;;;12.85;11.75;;;30.70;59.10;;;;;;4950135;28;20031;-84
2021/06/28 07:48:19;;;;;;;12.88;11.68;;;31.50;59.00;;;;;;4977454;28;20050;-86
2021/06/28 07:50:45;;;;;;;12.55;11.50;;;31.90;55.20;;;;;;4943482;29;20047;-81
2021/06/28 07:53:10;;;;;;;11.77;10.75;;;32.40;55.80;;;;;;4955745;29;20063;-85
2021/06/28 07:55:36;;;;;;;11.15;10.25;;;32.70;54.20;;;;;;4939182;29;20363;-80
2021/06/28 07:58:03;;;;;;;11.05;10.15;;;33.20;54.40;;;;;;4938439;29;20035;-81
2021/06/28 08:00:29;;;;;;;10.93;10.02;;;33.60;52.40;;;;;;4954139;29;20078;-80
2021/06/28 08:02:55;;;;;;;10.00;9.20;;;33.90;52.40;;;;;;4938513;29;20023;-79
2021/06/28 08:05:20;;;;;;;10.93;10.05;;;33.90;50.40;;;;;;4954751;29;20170;-80
2021/06/28 08:07:46;;;;;;;11.95;11.05;;;34.00;50.40;;;;;;4957883;28;20499;-78
2021/06/28 08:10:14;;;;;;;10.07;9.27;;;33.20;50.60;;;;;;4956655;28;20035;-83
2021/06/28 08:12:41;;;;;;;10.20;8.98;;;32.60;54.00;;;;;;4957884;29;20090;-80
2021/06/28 08:15:08;;;;;;;9.55;8.80;;;32.40;53.30;;;;;;4957634;29;20054;-79
2021/06/28 08:17:34;;;;;;;8.32;7.53;;;31.70;53.10;;;;;;4958689;28;20047;-80
2021/06/28 08:20:00;;;;;;;9.55;8.60;;;31.00;52.70;;;;;;4941812;29;20078;-79
2021/06/28 08:22:26;;;;;;;8.50;7.80;;;30.30;54.70;;;;;;4958841;28;20455;-79
2021/06/28 08:24:51;;;;;;;8.48;7.68;;;29.80;56.10;;;;;;4941531;29;20040;-79
2021/06/28 08:27:17;;;;;;;9.75;8.75;;;29.50;56.40;;;;;;4973638;28;20028;-81
2021/06/28 08:29:44;;;;;;;11.30;10.20;;;29.10;59.00;;;;;;4958580;28;20105;-81
2021/06/28 08:32:10;;;;;;;12.30;11.10;;;28.80;60.70;;;;;;4957508;29;20024;-79
2021/06/28 08:34:36;;;;;;;12.20;10.90;;;28.60;61.10;;;;;;4941589;29;20027;-80
2021/06/28 08:37:02;;;;;;;14.25;10.80;;;28.50;62.10;;;;;;4957342;29;20023;-79
2021/06/28 08:39:28;;;;;;;15.93;12.32;;;28.30;62.10;;;;;;4956989;29;20035;-80
2021/06/28 08:41:55;;;;;;;14.02;12.82;;;28.20;62.40;;;;;;4958514;28;20019;-80
2021/06/28 08:44:22;;;;;;;12.18;10.82;;;28.00;63.60;;;;;;4957249;29;20443;-80
2021/06/28 08:46:48;;;;;;;12.85;11.55;;;28.00;63.70;;;;;;4941274;29;20031;-80
2021/06/28 08:49:14;;;;;;;11.52;10.38;;;28.00;63.80;;;;;;4956932;29;20190;-80
2021/06/28 08:51:41;;;;;;;12.50;11.27;;;27.80;63.10;;;;;;4957764;29;20052;-82
2021/06/28 08:54:11;;;;;;;12.27;10.88;;;27.60;63.20;;;;;;4941176;29;20034;-79
2021/06/28 08:56:38;;;;;;;11.60;10.25;;;27.60;64.30;;;;;;4957528;29;20031;-80
2021/06/28 08:59:05;;;;;;;11.95;10.75;;;27.70;64.30;;;;;;4941294;29;20427;-79
2021/06/28 09:01:36;;;;;;;10.57;9.52;;;28.00;64.20;;;;;;4940886;29;20031;-79
2021/06/28 09:04:03;;;;;;;11.60;10.38;;;28.40;63.30;;;;;;4957446;29;20082;-80
2021/06/28 09:06:30;;;;;;;10.07;9.18;;;28.90;61.80;;;;;;4956725;29;20083;-80
2021/06/28 09:09:01;;;;;;;10.25;9.35;;;29.30;60.90;;;;;;4958159;28;20041;-81
2021/06/28 09:11:27;;;;;;;8.88;7.93;;;29.60;59.40;;;;;;4940693;29;20546;-80
2021/06/28 09:13:55;;;;;;;10.63;8.15;;;29.50;58.40;;;;;;4958272;29;20044;-80
2021/06/28 09:16:25;;;;;;;7.30;6.38;;;29.20;57.90;;;;;;4957568;28;20078;-84
2021/06/28 09:19:04;;;;;;;7.30;6.70;;;28.90;59.00;;;;;;4956498;29;20162;-80
2021/06/28 09:21:40;;;;;;;7.28;6.60;;;28.70;58.40;;;;;;4955871;28;20027;-79
2021/06/28 09:24:29;;;;;;;7.65;6.97;;;28.40;58.00;;;;;;4956521;29;20023;-80
2021/06/28 09:26:58;;;;;;;8.55;7.70;;;28.30;59.00;;;;;;4949728;29;20035;-81
2021/06/28 09:29:34;;;;;;;6.97;6.38;;;28.30;60.70;;;;;;4956521;29;20028;-83
2021/06/28 09:32:14;;;;;;;7.70;6.93;;;28.30;61.00;;;;;;4940330;29;20031;-81
2021/06/28 09:34:42;;;;;;;8.18;7.40;;;28.40;60.90;;;;;;4956374;29;20023;-79
2021/06/28 09:37:13;;;;;;;8.25;7.47;;;28.40;60.70;;;;;;4973204;28;20027;-81
2021/06/28 09:39:43;;;;;;;8.95;8.15;;;28.30;61.20;;;;;;4956556;29;20070;-82
2021/06/28 09:42:12;;;;;;;9.30;7.18;;;28.40;61.10;;;;;;4956067;29;20012;-81
2021/06/28 09:44:48;;;;;;;9.45;8.52;;;28.40;61.50;;;;;;4972102;28;20073;-81
2021/06/28 09:47:17;;;;;;;9.52;8.63;;;28.50;61.50;;;;;;4956010;29;20456;-81
2021/06/28 09:50:06;;;;;;;10.43;8.52;;;28.20;60.70;;;;;;4955572;29;20054;-81
2021/06/28 09:52:40;;;;;;;10.10;9.20;;;28.00;61.80;;;;;;4972482;28;20130;-82
2021/06/28 09:55:20;;;;;;;10.20;9.20;;;27.90;61.70;;;;;;4957130;28;20063;-81
2021/06/28 09:58:04;;;;;;;9.57;8.68;;;27.90;62.20;;;;;;4971763;28;20030;-81
2021/06/28 10:00:31;;;;;;;9.80;8.93;;;27.80;63.00;;;;;;4971860;28;20039;-90
2021/06/28 10:02:57;;;;;;;10.32;9.43;;;27.80;63.60;;;;;;4971820;28;20093;-80
2021/06/28 10:05:26;;;;;;;10.15;9.25;;;27.90;63.30;;;;;;4955636;29;20114;-81
2021/06/28 10:07:54;;;;;;;12.68;9.77;;;27.80;63.50;;;;;;4971831;28;20027;-81
2021/06/28 10:10:30;;;;;;;10.55;9.55;;;27.70;63.00;;;;;;4956367;28;20480;-81
2021/06/28 10:12:56;;;;;;;11.77;10.68;;;27.80;63.80;;;;;;4955787;29;20039;-82
2021/06/28 10:15:29;;;;;;;12.02;10.70;;;27.90;63.60;;;;;;4955620;29;20360;-81
2021/06/28 10:17:55;;;;;;;11.35;10.25;;;27.90;63.70;;;;;;4955545;29;20030;-81
2021/06/28 10:20:24;;;;;;;12.55;11.38;;;27.90;63.50;;;;;;4956314;28;20046;-81
2021/06/28 10:22:51;;;;;;;11.52;10.38;;;28.00;62.90;;;;;;4955375;29;20027;-89
2021/06/28 10:25:20;;;;;;;10.85;9.95;;;28.00;62.50;;;;;;4939406;29;20027;-79
2021/06/28 10:27:47;;;;;;;10.93;9.90;;;28.00;62.90;;;;;;4954956;29;20038;-80
2021/06/28 10:30:18;;;;;;;12.10;10.88;;;27.80;63.40;;;;;;4956444;28;20058;-80
2021/06/28 10:32:47;;;;;;;11.15;10.20;;;27.80;62.90;;;;;;4955938;28;20498;-81
2021/06/28 10:35:15;;;;;;;10.75;9.77;;;27.70;63.20;;;;;;4939427;29;20031;-80
2021/06/28 10:37:42;;;;;;;11.05;10.20;;;27.90;63.80;;;;;;4955241;29;20038;-80
2021/06/28 10:40:09;;;;;;;11.88;10.68;;;28.00;63.80;;;;;;4956133;28;20035;-83
2021/06/28 10:42:41;;;;;;;11.02;10.02;;;28.10;62.20;;;;;;4956559;28;20107;-89
2021/06/28 10:45:09;;;;;;;10.98;10.07;;;28.50;63.30;;;;;;4955883;28;20027;-79
2021/06/28 10:47:40;;;;;;;11.55;10.48;;;28.80;62.20;;;;;;4955991;28;20020;-84
2021/06/28 10:50:08;;;;;;;10.82;9.82;;;28.90;61.10;;;;;;4954566;29;20059;-80
2021/06/28 10:52:34;;;;;;;12.18;10.88;;;29.00;62.40;;;;;;4971599;28;20075;-81
2021/06/28 10:55:02;;;;;;;11.15;10.15;;;28.60;61.80;;;;;;4956604;28;20360;-83
2021/06/28 10:57:42;;;;;;;11.48;10.48;;;28.00;62.40;;;;;;4939158;29;20471;-81
2021/06/28 11:00:08;;;;;;;10.10;9.27;;;27.30;64.10;;;;;;4954621;29;20118;-80
2021/06/28 11:02:40;;;;;;;11.77;10.77;;;27.20;65.30;;;;;;4955974;28;20032;-80
2021/06/28 11:05:10;;;;;;;11.90;10.75;;;27.10;65.50;;;;;;4954515;29;20121;-80
2021/06/28 11:07:48;;;;;;;12.63;11.38;;;27.00;65.80;;;;;;4954785;29;20403;-84
2021/06/28 11:10:35;;;;;;;14.05;12.57;;;27.10;66.70;;;;;;4955858;29;20027;-80
2021/06/28 11:13:39;;;;;;;13.30;12.20;;;27.20;67.60;;;;;;4959962;29;20154;-84
2021/06/28 11:16:33;;;;;;;13.90;12.50;;;27.40;67.80;;;;;;4937260;29;20516;-81
2021/06/28 11:18:59;;;;;;;14.93;12.98;;;27.60;67.40;;;;;;4956529;28;20019;-84
2021/06/28 11:21:38;;;;;;;16.15;14.65;;;27.50;67.40;;;;;;4939055;29;20027;-83
2021/06/28 11:24:04;;;;;;;15.93;14.25;;;27.50;67.40;;;;;;4939789;29;20039;-85
2021/06/28 11:26:37;;;;;;;16.25;14.00;;;27.60;68.30;;;;;;4954320;29;20031;-83
2021/06/28 11:29:04;;;;;;;16.10;14.60;;;27.80;68.60;;;;;;4954997;29;20463;-83
2021/06/28 11:31:31;;;;;;;16.58;15.07;;;28.00;68.70;;;;;;4941653;29;20059;-82
2021/06/28 11:33:59;;;;;;;16.70;15.18;;;28.40;67.90;;;;;;4958165;29;20026;-82
2021/06/28 11:36:31;;;;;;;18.63;16.80;;;28.60;67.50;;;;;;4957914;29;20074;-81
2021/06/28 11:38:59;;;;;;;;;;;28.90;67.10;;;;;;4957579;29;20420;-80
2021/06/28 11:41:27;;;;;;;18.95;17.05;;;29.00;66.60;;;;;;4956542;29;19906;-81
2021/06/28 11:44:00;;;;;;;20.45;18.33;;;28.80;66.00;;;;;;4955509;28;20373;-76
2021/06/28 11:46:33;;;;;;;32.30;21.30;;;28.50;66.40;;;;;;4958977;29;20031;-80
2021/06/28 11:49:03;;;;;;;28.38;19.70;;;28.20;66.70;;;;;;4957973;29;20063;-82
2021/06/28 11:51:55;;;;;;;19.90;17.90;;;27.90;67.40;;;;;;4958150;29;20387;-81
2021/06/28 11:54:24;;;;;;;20.48;18.35;;;27.60;67.60;;;;;;4940088;29;20134;-80
2021/06/28 11:56:52;;;;;;;20.75;18.60;;;27.30;68.30;;;;;;4958009;29;20027;-87
2021/06/28 11:59:20;;;;;;;22.08;18.60;;;27.00;69.50;;;;;;4958508;29;20112;-83
2021/06/28 12:01:54;;;;;;;26.35;20.35;;;26.70;70.40;;;;;;4957455;29;20031;-84
2021/06/28 12:04:34;;;;;;;23.00;20.50;;;26.50;71.90;;;;;;4957826;29;20070;-85
2021/06/28 12:07:02;;;;;;;23.08;20.58;;;26.30;73.10;;;;;;4957625;29;20019;-83
2021/06/28 12:09:33;;;;;;;25.00;21.30;;;26.00;73.90;;;;;;4958878;28;20031;-83
2021/06/28 12:12:03;;;;;;;21.08;19.02;;;25.90;74.70;;;;;;4957803;29;20469;-82
2021/06/28 12:14:39;;;;;;;26.25;23.50;;;25.80;74.90;;;;;;4958068;28;20035;-82
2021/06/28 12:17:09;;;;;;;25.02;20.80;;;25.50;75.80;;;;;;4957123;29;20367;-83
2021/06/28 12:19:38;;;;;;;18.52;16.45;;;25.30;76.60;;;;;;4957291;29;20031;-84
2021/06/28 12:22:11;;;;;;;10.70;9.65;;;25.00;77.20;;;;;;4956757;29;20031;-84
2021/06/28 12:24:37;;;;;;;8.90;8.10;;;24.70;77.30;;;;;;4974038;28;20067;-86
2021/06/28 12:27:07;;;;;;;7.53;6.88;;;24.60;77.40;;;;;;4941038;29;20138;-86
2021/06/28 12:29:35;;;;;;;8.27;7.32;;;24.60;77.90;;;;;;4958553;29;20567;-89
2021/06/28 12:32:11;;;;;;;8.32;7.53;;;24.90;78.00;;;;;;4958174;29;20031;-89
2021/06/28 12:34:37;;;;;;;9.02;8.23;;;25.40;77.60;;;;;;4958672;29;20411;-93